createdAt,value
2022-09-28T00:01:08.957Z,99727.16
2022-09-28T00:03:36.733Z,99729.28
2022-09-28T00:06:10.280Z,99739.19
2022-09-28T00:08:37.433Z,99735.31
2022-09-28T00:11:06.786Z,99731.47
2022-09-28T00:13:34.236Z,99737.69
2022-09-28T00:16:03.657Z,99726.81
2022-09-28T00:18:31.089Z,99730.75
2022-09-28T00:21:18.994Z,99726.16
2022-09-28T00:24:04.530Z,99735.25
2022-09-28T00:26:33.382Z,99729.09
2022-09-28T00:29:02.221Z,99735.34
2022-09-28T00:31:32.894Z,99734.88
2022-09-28T00:34:01.361Z,99721.97
2022-09-28T00:36:29.999Z,99724.06
2022-09-28T00:38:58.263Z,99727.72
2022-09-28T00:41:26.657Z,99733.19
2022-09-28T00:44:13.883Z,99724.44
2022-09-28T00:46:41.190Z,99726.28
2022-09-28T00:49:14.815Z,99720.59
2022-09-28T00:51:44.611Z,99722.41
2022-09-28T00:54:13.034Z,99716.72
2022-09-28T00:56:44.697Z,99714.44
2022-09-28T00:59:11.538Z,99720.66
2022-09-28T01:01:38.476Z,99715.75
2022-09-28T01:04:06.601Z,99713.47
2022-09-28T01:06:36.172Z,99710.38
2022-09-28T01:09:06.013Z,99710.66
2022-09-28T01:11:35.223Z,99711.41
2022-09-28T01:14:03.829Z,99708.06
2022-09-28T01:16:46.216Z,99707.00
2022-09-28T01:19:22.075Z,99706.72
2022-09-28T01:22:04.416Z,99708.28
2022-09-28T01:24:47.299Z,99703.84
2022-09-28T01:27:20.730Z,99695.78
2022-09-28T01:30:05.387Z,99703.56
2022-09-28T01:32:38.503Z,99702.22
2022-09-28T01:35:10.974Z,99693.38
2022-09-28T01:37:46.723Z,99698.56
2022-09-28T01:40:15.753Z,99703.75
2022-09-28T01:42:46.228Z,99705.59
2022-09-28T01:45:22.818Z,99706.34
2022-09-28T01:47:51.341Z,99704.06
2022-09-28T01:50:23.139Z,99698.88
2022-09-28T01:53:13.042Z,99701.75
2022-09-28T01:55:48.150Z,99702.28
2022-09-28T01:58:40.232Z,99697.91
2022-09-28T02:01:14.128Z,99696.63
2022-09-28T02:04:19.857Z,99693.84
2022-09-28T02:06:57.780Z,99700.84
2022-09-28T02:09:42.771Z,99695.91
2022-09-28T02:12:16.360Z,99690.72
2022-09-28T02:14:46.544Z,99696.50
2022-09-28T02:17:13.754Z,99690.81
2022-09-28T02:19:41.491Z,99689.75
2022-09-28T02:22:37.434Z,99691.09
2022-09-28T02:25:28.383Z,99692.66
2022-09-28T02:28:06.487Z,99692.94
2022-09-28T02:30:35.909Z,99695.25
2022-09-28T02:33:20.607Z,99700.44
2022-09-28T02:35:47.708Z,99697.06
2022-09-28T02:38:15.272Z,99691.88
2022-09-28T02:40:46.088Z,99693.41
2022-09-28T02:43:23.905Z,99697.84
2022-09-28T02:46:20.683Z,99702.25
2022-09-28T02:49:30.396Z,99706.94
2022-09-28T02:52:18.689Z,99713.16
2022-09-28T02:55:23.689Z,99707.41
2022-09-28T02:58:17.813Z,99709.25
2022-09-28T03:01:26.261Z,99711.56
2022-09-28T03:04:09.217Z,99703.78
2022-09-28T03:07:20.963Z,99707.91
2022-09-28T03:10:04.041Z,99707.97
2022-09-28T03:12:31.738Z,99710.06
2022-09-28T03:15:31.024Z,99710.63
2022-09-28T03:17:58.341Z,99711.97
2022-09-28T03:20:27.137Z,99710.44
2022-09-28T03:23:19.768Z,99718.50
2022-09-28T03:25:41.367Z,99719.84
2022-09-28T03:28:08.155Z,99721.94
2022-09-28T03:30:34.987Z,99719.63
2022-09-28T03:33:02.691Z,99717.06
2022-09-28T03:35:29.436Z,99722.03
2022-09-28T03:37:56.614Z,99719.75
2022-09-28T03:40:23.660Z,99716.09
2022-09-28T03:42:50.541Z,99720.50
2022-09-28T03:45:17.394Z,99714.56
2022-09-28T03:47:47.824Z,99709.94
2022-09-28T03:50:15.621Z,99711.75
2022-09-28T03:52:42.761Z,99719.53
2022-09-28T03:55:11.052Z,99706.84
2022-09-28T03:57:38.494Z,99711.25
2022-09-28T04:00:06.343Z,99708.19
2022-09-28T04:02:34.901Z,99693.19
2022-09-28T04:05:02.324Z,99704.88
2022-09-28T04:07:31.283Z,99698.72
2022-09-28T04:09:58.393Z,99692.56
2022-09-28T04:12:25.164Z,99700.59
2022-09-28T04:14:52.012Z,99700.38
2022-09-28T04:17:18.755Z,99708.97
2022-09-28T04:19:45.543Z,99704.16
2022-09-28T04:22:12.335Z,99715.53
2022-09-28T04:24:40.330Z,99721.53
2022-09-28T04:27:25.513Z,99716.88
2022-09-28T04:29:52.302Z,99718.22
2022-09-28T04:32:19.122Z,99716.91
2022-09-28T04:34:45.871Z,99721.91
2022-09-28T04:37:12.696Z,99717.25
2022-09-28T04:39:43.104Z,99718.88
2022-09-28T04:42:13.089Z,99720.47
2022-09-28T04:44:39.889Z,99725.72
2022-09-28T04:47:06.731Z,99723.13
2022-09-28T04:49:35.668Z,99723.66
2022-09-28T04:52:02.473Z,99727.84
2022-09-28T04:54:29.250Z,99725.78
2022-09-28T04:56:56.009Z,99728.38
2022-09-28T04:59:22.741Z,99730.47
2022-09-28T05:01:49.686Z,99719.13
2022-09-28T05:04:16.478Z,99723.81
2022-09-28T05:06:43.209Z,99722.28
2022-09-28T05:09:10.181Z,99728.22
2022-09-28T05:11:37.096Z,99726.19
2022-09-28T05:14:03.954Z,99735.75
2022-09-28T05:16:33.912Z,99731.41
2022-09-28T05:19:00.794Z,99728.31
2022-09-28T05:21:29.374Z,99731.44
2022-09-28T05:23:56.886Z,99725.50
2022-09-28T05:26:23.655Z,99730.16
2022-09-28T05:28:51.051Z,99729.41
2022-09-28T05:31:17.958Z,99728.13
2022-09-28T05:33:44.845Z,99737.44
2022-09-28T05:36:11.958Z,99731.75
2022-09-28T05:38:38.861Z,99741.34
2022-09-28T05:41:06.676Z,99735.09
2022-09-28T05:43:33.918Z,99741.84
2022-09-28T05:46:00.826Z,99732.81
2022-09-28T05:48:28.470Z,99740.28
2022-09-28T05:50:55.365Z,99740.78
2022-09-28T05:53:22.211Z,99739.00
2022-09-28T05:55:49.018Z,99745.69
2022-09-28T05:58:16.300Z,99745.69
2022-09-28T06:00:43.518Z,99743.66
2022-09-28T06:03:14.668Z,99751.13
2022-09-28T06:05:41.868Z,99744.94
2022-09-28T06:08:12.905Z,99749.53
2022-09-28T06:10:40.104Z,99749.84
2022-09-28T06:13:07.657Z,99744.88
2022-09-28T06:15:36.054Z,99743.00
2022-09-28T06:18:05.541Z,99751.50
2022-09-28T06:20:35.765Z,99750.69
2022-09-28T06:23:03.087Z,99757.09
2022-09-28T06:25:30.533Z,99761.16
2022-09-28T06:28:16.514Z,99753.84
2022-09-28T06:30:44.230Z,99750.44
2022-09-28T06:33:13.349Z,99756.56
2022-09-28T06:35:40.815Z,99753.63
2022-09-28T06:38:07.835Z,99755.88
2022-09-28T06:40:35.214Z,99757.94
2022-09-28T06:43:10.040Z,99751.66
2022-09-28T06:45:38.579Z,99756.22
2022-09-28T06:48:06.552Z,99770.88
2022-09-28T06:50:37.592Z,99760.38
2022-09-28T06:53:12.361Z,99767.47
2022-09-28T06:55:43.960Z,99777.94
2022-09-28T06:58:13.626Z,99772.03
2022-09-28T07:00:41.691Z,99775.75
2022-09-28T07:03:12.970Z,99766.00
2022-09-28T07:05:57.668Z,99779.03
2022-09-28T07:08:26.295Z,99780.13
2022-09-28T07:10:56.921Z,99777.06
2022-09-28T07:13:51.853Z,99790.38
2022-09-28T07:16:13.129Z,99790.13
2022-09-28T07:18:40.642Z,99792.16
2022-09-28T07:21:08.892Z,99796.59
2022-09-28T07:23:48.936Z,99802.06
2022-09-28T07:26:23.773Z,99798.88
2022-09-28T07:28:51.512Z,99809.75
2022-09-28T07:31:18.352Z,99815.69
2022-09-28T07:33:46.741Z,99810.00
2022-09-28T07:36:16.372Z,99816.72
2022-09-28T07:38:44.221Z,99817.44
2022-09-28T07:41:15.008Z,99822.31
2022-09-28T07:43:42.211Z,99823.34
2022-09-28T07:46:12.977Z,99822.47
2022-09-28T07:48:41.597Z,99817.19
2022-09-28T07:51:09.240Z,99826.31
2022-09-28T07:53:36.240Z,99828.19
2022-09-28T07:56:09.120Z,99827.00
2022-09-28T07:58:37.510Z,99823.84
2022-09-28T08:01:10.545Z,99829.09
2022-09-28T08:03:39.493Z,99833.59
2022-09-28T08:06:09.984Z,99832.50
2022-09-28T08:08:38.058Z,99836.34
2022-09-28T08:11:07.271Z,99832.06
2022-09-28T08:13:34.304Z,99835.91
2022-09-28T08:16:02.420Z,99849.25
2022-09-28T08:18:38.377Z,99851.69
2022-09-28T08:21:24.711Z,99847.84
2022-09-28T08:23:53.037Z,99848.91
2022-09-28T08:26:20.205Z,99853.84
2022-09-28T08:28:48.039Z,99850.16
2022-09-28T08:31:15.072Z,99857.66
2022-09-28T08:33:42.274Z,99853.72
2022-09-28T08:36:10.863Z,99856.16
2022-09-28T08:38:37.811Z,99850.31
2022-09-28T08:41:14.802Z,99864.59
2022-09-28T08:43:56.848Z,99867.34
2022-09-28T08:46:31.927Z,99860.47
2022-09-28T08:49:25.509Z,99864.97
2022-09-28T08:51:52.802Z,99872.47
2022-09-28T08:54:48.986Z,99865.88
2022-09-28T08:57:27.648Z,99872.50
2022-09-28T08:59:57.015Z,99863.59
2022-09-28T09:02:34.413Z,99871.88
2022-09-28T09:05:06.262Z,99871.28
2022-09-28T09:07:59.982Z,99874.66
2022-09-28T09:10:38.962Z,99875.47
2022-09-28T09:13:31.553Z,99876.69
2022-09-28T09:16:15.321Z,99880.69
2022-09-28T09:18:42.339Z,99880.84
2022-09-28T09:21:16.392Z,99883.19
2022-09-28T09:23:57.667Z,99888.88
2022-09-28T09:26:38.868Z,99892.25
2022-09-28T09:29:24.444Z,99890.84
2022-09-28T09:32:09.926Z,99894.41
2022-09-28T09:34:54.207Z,99893.78
2022-09-28T09:37:43.653Z,99896.06
2022-09-28T09:40:52.780Z,99897.38
2022-09-28T09:43:28.065Z,99885.19
2022-09-28T09:46:22.507Z,99893.94
2022-09-28T09:49:04.016Z,99901.03
2022-09-28T09:51:44.015Z,99902.75
2022-09-28T09:54:15.048Z,99905.56
2022-09-28T09:57:17.184Z,99903.41
2022-09-28T09:59:45.862Z,99904.25
2022-09-28T10:02:26.498Z,99893.78
2022-09-28T10:04:59.210Z,99896.41
2022-09-28T10:07:41.380Z,99896.59
2022-09-28T10:10:21.588Z,99892.72
2022-09-28T10:12:51.263Z,99901.78
2022-09-28T10:15:28.928Z,99909.34
2022-09-28T10:17:59.205Z,99892.78
2022-09-28T10:20:27.734Z,99903.44
2022-09-28T10:22:57.334Z,99896.78
2022-09-28T10:25:25.521Z,99903.97
2022-09-28T10:27:52.799Z,99902.03
2022-09-28T10:30:23.865Z,99906.78
2022-09-28T10:32:53.842Z,99910.63
2022-09-28T10:35:25.128Z,99899.81
2022-09-28T10:37:55.201Z,99907.63
2022-09-28T10:40:45.618Z,99907.16
2022-09-28T10:43:26.057Z,99910.97
2022-09-28T10:46:02.195Z,99908.53
2022-09-28T10:48:36.350Z,99910.34
2022-09-28T10:51:07.146Z,99903.06
2022-09-28T10:53:37.344Z,99905.72
2022-09-28T10:56:05.617Z,99909.97
2022-09-28T10:58:43.072Z,99908.19
2022-09-28T11:01:33.907Z,99906.34
2022-09-28T11:04:08.303Z,99907.88
2022-09-28T11:06:41.961Z,99901.25
2022-09-28T11:09:43.248Z,99898.31
2022-09-28T11:12:18.122Z,99900.22
2022-09-28T11:14:46.457Z,99903.91
2022-09-28T11:17:42.171Z,99904.06
2022-09-28T11:20:35.086Z,99904.56
2022-09-28T11:23:26.689Z,99903.53
2022-09-28T11:26:23.366Z,99905.16
2022-09-28T11:28:54.095Z,99904.00
2022-09-28T11:31:28.306Z,99902.81
2022-09-28T11:34:31.445Z,99898.19
2022-09-28T11:37:22.290Z,99893.88
2022-09-28T11:39:58.060Z,99898.06
2022-09-28T11:43:16.808Z,99902.19
2022-09-28T11:46:06.114Z,99891.72
2022-09-28T11:48:53.679Z,99898.66
2022-09-28T11:51:31.953Z,99894.56
2022-09-28T11:54:05.322Z,99898.72
2022-09-28T11:56:40.072Z,99902.22
2022-09-28T11:59:14.892Z,99900.34
2022-09-28T12:01:51.823Z,99907.38
2022-09-28T12:04:25.345Z,99906.84
2022-09-28T12:07:13.277Z,99902.25
2022-09-28T12:09:52.552Z,99907.97
2022-09-28T12:12:45.697Z,99904.66
2022-09-28T12:16:12.922Z,99912.31
2022-09-28T12:21:48.583Z,99902.16
2022-09-28T12:24:27.372Z,99905.88
2022-09-28T12:27:00.596Z,99919.28
2022-09-28T12:29:51.101Z,99910.53
2022-09-28T12:32:32.235Z,99924.84
2022-09-28T12:34:59.147Z,99932.84
2022-09-28T12:37:54.560Z,99933.69
2022-09-28T12:40:55.955Z,99933.28
2022-09-28T12:43:54.837Z,99925.97
2022-09-28T12:46:27.860Z,99939.63
2022-09-28T12:49:47.593Z,99939.63
2022-09-28T12:51:54.238Z,99937.56
2022-09-28T12:54:39.144Z,99938.16
2022-09-28T12:57:43.578Z,99933.63
2022-09-28T13:00:22.303Z,99928.91
2022-09-28T13:03:08.009Z,99931.41
2022-09-28T13:05:59.086Z,99930.06
2022-09-28T13:08:50.967Z,99924.41
2022-09-28T13:11:38.704Z,99918.28
2022-09-28T13:14:55.339Z,99923.06
2022-09-28T13:17:37.931Z,99927.97
2022-09-28T13:20:17.811Z,99920.31
2022-09-28T13:23:09.186Z,99921.38
2022-09-28T13:25:41.111Z,99926.94
2022-09-28T13:28:08.514Z,99928.16
2022-09-28T13:30:38.935Z,99938.13
2022-09-28T13:33:10.857Z,99939.66
2022-09-28T13:35:43.431Z,99938.25
2022-09-28T13:38:19.097Z,99932.38
2022-09-28T13:41:04.232Z,99941.06
2022-09-28T13:44:13.254Z,99941.50
2022-09-28T13:47:08.716Z,99936.66
2022-09-28T13:50:04.846Z,99933.38
2022-09-28T13:52:57.750Z,99934.72
2022-09-28T13:55:43.225Z,99942.59
2022-09-28T13:58:27.933Z,99936.66
2022-09-28T14:01:09.111Z,99932.41
2022-09-28T14:04:12.163Z,99934.25
2022-09-28T14:06:48.683Z,99938.19
2022-09-28T14:09:27.446Z,99931.06
2022-09-28T14:12:00.232Z,99938.28
2022-09-28T14:14:46.012Z,99940.47
2022-09-28T14:17:21.724Z,99942.13
2022-09-28T14:20:01.493Z,99943.66
2022-09-28T14:22:53.663Z,99935.09
2022-09-28T14:25:25.040Z,99944.34
2022-09-28T14:28:10.341Z,99946.03
2022-09-28T14:30:43.029Z,99942.81
2022-09-28T14:33:20.409Z,99950.63
2022-09-28T14:36:07.841Z,99948.84
2022-09-28T14:39:03.667Z,99957.56
2022-09-28T14:41:36.707Z,99963.81
2022-09-28T14:44:11.414Z,99962.50
2022-09-28T14:46:41.251Z,99964.28
2022-09-28T14:49:17.671Z,99968.59
2022-09-28T14:51:57.003Z,99961.63
2022-09-28T14:54:26.844Z,99954.88
2022-09-28T14:56:53.759Z,99955.47
2022-09-28T14:59:22.671Z,99955.06
2022-09-28T15:02:45.136Z,99964.63
2022-09-28T15:05:20.196Z,99956.03
2022-09-28T15:07:52.755Z,99967.28
2022-09-28T15:10:33.797Z,99969.47
2022-09-28T15:13:06.730Z,99975.19
2022-09-28T15:15:47.263Z,99976.56
2022-09-28T15:18:44.018Z,99972.72
2022-09-28T15:21:12.608Z,99974.56
2022-09-28T15:23:44.428Z,99973.81
2022-09-28T15:26:29.142Z,99983.66
2022-09-28T15:28:56.145Z,99981.03
2022-09-28T15:31:26.503Z,99988.59
2022-09-28T15:34:12.913Z,99971.69
2022-09-28T15:36:39.760Z,99982.91
2022-09-28T15:39:14.751Z,99979.06
2022-09-28T15:41:48.313Z,99983.81
2022-09-28T15:44:33.126Z,99989.66
2022-09-28T15:47:25.760Z,99984.28
2022-09-28T15:50:03.611Z,99988.13
2022-09-28T15:52:43.646Z,99978.75
2022-09-28T15:55:30.850Z,99983.06
2022-09-28T15:58:17.422Z,99989.69
2022-09-28T16:00:46.822Z,99991.41
2022-09-28T16:03:22.298Z,99983.69
2022-09-28T16:06:05.731Z,99987.38
2022-09-28T16:08:44.234Z,99991.66
2022-09-28T16:11:26.386Z,99987.53
2022-09-28T16:14:06.430Z,99987.06
2022-09-28T16:16:43.276Z,99985.22
2022-09-28T16:19:28.809Z,99979.38
2022-09-28T16:22:00.225Z,99983.38
2022-09-28T16:24:30.645Z,99986.94
2022-09-28T16:27:08.335Z,99979.38
2022-09-28T16:29:38.303Z,99985.38
2022-09-28T16:32:24.774Z,99992.91
2022-09-28T16:35:12.590Z,99988.31
2022-09-28T16:37:42.923Z,99986.00
2022-09-28T16:40:11.047Z,99996.59
2022-09-28T16:42:40.229Z,100002.00
2022-09-28T16:45:13.982Z,99992.78
2022-09-28T16:47:41.037Z,100003.38
2022-09-28T16:50:10.812Z,100000.47
2022-09-28T16:52:59.879Z,100011.06
2022-09-28T16:55:40.211Z,100008.13
2022-09-28T16:58:08.570Z,100015.03
2022-09-28T17:00:36.475Z,100012.59
2022-09-28T17:03:13.255Z,100014.84
2022-09-28T17:05:40.311Z,100021.78
2022-09-28T17:08:11.380Z,100022.97
2022-09-28T17:11:02.507Z,100025.75
2022-09-28T17:13:36.366Z,100036.13
2022-09-28T17:16:11.592Z,100028.75
2022-09-28T17:18:40.204Z,100033.31
2022-09-28T17:21:12.355Z,100033.28
2022-09-28T17:23:39.344Z,100035.56
2022-09-28T17:26:06.561Z,100041.22
2022-09-28T17:28:35.925Z,100045.31
2022-09-28T17:31:04.341Z,100041.28
2022-09-28T17:33:31.390Z,100045.09
2022-09-28T17:36:01.716Z,100045.22
2022-09-28T17:38:28.852Z,100045.63
2022-09-28T17:40:55.778Z,100049.16
2022-09-28T17:43:22.664Z,100052.66
2022-09-28T17:45:50.545Z,100048.78
2022-09-28T17:48:23.109Z,100052.56
2022-09-28T17:50:50.912Z,100039.97
2022-09-28T17:53:18.240Z,100038.25
2022-09-28T17:55:45.366Z,100044.66
2022-09-28T17:58:21.049Z,100050.72
2022-09-28T18:00:49.970Z,100044.09
2022-09-28T18:03:20.157Z,100043.41
2022-09-28T18:05:49.899Z,100044.59
2022-09-28T18:08:21.321Z,100051.47
2022-09-28T18:10:48.222Z,100052.34
2022-09-28T18:13:15.452Z,100048.59
2022-09-28T18:15:42.821Z,100056.53
2022-09-28T18:18:09.974Z,100055.56
2022-09-28T18:20:37.803Z,100054.59
2022-09-28T18:23:05.380Z,100051.03
2022-09-28T18:25:32.187Z,100056.34
2022-09-28T18:28:00.233Z,100056.91
2022-09-28T18:30:28.119Z,100052.88
2022-09-28T18:32:55.457Z,100057.13
2022-09-28T18:35:23.357Z,100057.22
2022-09-28T18:37:51.110Z,100054.97
2022-09-28T18:40:18.345Z,100053.44
2022-09-28T18:42:45.167Z,100056.13
2022-09-28T18:45:12.120Z,100066.84
2022-09-28T18:47:40.219Z,100059.78
2022-09-28T18:50:07.532Z,100052.06
2022-09-28T18:52:39.273Z,100051.59
2022-09-28T18:55:07.935Z,100059.38
2022-09-28T18:57:35.225Z,100059.88
2022-09-28T19:00:05.145Z,100052.66
2022-09-28T19:02:32.270Z,100058.16
2022-09-28T19:04:59.296Z,100059.00
2022-09-28T19:07:26.388Z,100058.25
2022-09-28T19:09:53.424Z,100056.97
2022-09-28T19:12:20.523Z,100057.56
2022-09-28T19:14:47.338Z,100051.09
2022-09-28T19:17:14.167Z,100049.56
2022-09-28T19:19:42.796Z,100055.53
2022-09-28T19:22:09.667Z,100058.41
2022-09-28T19:24:36.412Z,100067.84
2022-09-28T19:27:03.227Z,100061.38
2022-09-28T19:29:29.954Z,100067.94
2022-09-28T19:31:57.326Z,100065.63
2022-09-28T19:34:30.205Z,100057.59
2022-09-28T19:36:57.376Z,100066.00
2022-09-28T19:39:24.197Z,100062.63
2022-09-28T19:41:54.455Z,100067.63
2022-09-28T19:44:27.076Z,100068.94
2022-09-28T19:47:10.170Z,100070.78
2022-09-28T19:49:39.734Z,100079.94
2022-09-28T19:52:13.841Z,100082.81
2022-09-28T19:55:00.081Z,100079.72
2022-09-28T19:57:32.720Z,100074.81
2022-09-28T20:00:03.441Z,100083.19
2022-09-28T20:02:31.123Z,100080.31
2022-09-28T20:04:58.098Z,100085.50
2022-09-28T20:07:25.089Z,100083.47
2022-09-28T20:09:51.894Z,100089.75
2022-09-28T20:12:19.066Z,100094.44
2022-09-28T20:14:46.003Z,100096.56
2022-09-28T20:17:12.988Z,100100.47
2022-09-28T20:19:39.904Z,100094.50
2022-09-28T20:22:06.831Z,100101.81
2022-09-28T20:24:34.066Z,100097.19
2022-09-28T20:27:01.653Z,100094.88
2022-09-28T20:29:29.379Z,100109.19
2022-09-28T20:31:56.855Z,100105.34
2022-09-28T20:34:23.831Z,100099.94
2022-09-28T20:36:50.627Z,100097.31
2022-09-28T20:39:17.520Z,100101.00
2022-09-28T20:41:46.210Z,100105.97
2022-09-28T20:44:13.118Z,100111.44
2022-09-28T20:46:39.904Z,100110.97
2022-09-28T20:49:07.835Z,100108.66
2022-09-28T20:51:35.036Z,100107.38
2022-09-28T20:54:01.898Z,100098.59
2022-09-28T20:56:38.908Z,100105.63
2022-09-28T20:59:11.681Z,100111.09
2022-09-28T21:01:38.628Z,100105.41
2022-09-28T21:04:07.164Z,100107.03
2022-09-28T21:06:36.236Z,100115.41
2022-09-28T21:09:05.049Z,100112.78
2022-09-28T21:11:34.400Z,100118.53
2022-09-28T21:14:03.329Z,100116.78
2022-09-28T21:16:32.556Z,100125.97
2022-09-28T21:18:59.898Z,100133.28
2022-09-28T21:21:27.042Z,100129.69
2022-09-28T21:23:55.263Z,100131.28
2022-09-28T21:26:27.103Z,100130.84
2022-09-28T21:29:10.867Z,100132.22
2022-09-28T21:31:45.750Z,100130.69
2022-09-28T21:34:14.049Z,100133.06
2022-09-28T21:36:43.436Z,100130.72
2022-09-28T21:39:10.678Z,100136.22
2022-09-28T21:41:37.785Z,100134.66
2022-09-28T21:44:05.237Z,100140.91
2022-09-28T21:46:34.863Z,100132.63
2022-09-28T21:49:02.662Z,100136.25
2022-09-28T21:51:30.079Z,100142.00
2022-09-28T21:53:57.222Z,100144.13
2022-09-28T21:56:24.196Z,100142.81
2022-09-28T21:58:51.220Z,100138.97
2022-09-28T22:01:23.610Z,100146.50
2022-09-28T22:03:53.871Z,100137.47
2022-09-28T22:06:23.165Z,100145.25
2022-09-28T22:08:50.597Z,100139.56
2022-09-28T22:11:20.040Z,100137.78
2022-09-28T22:13:49.947Z,100141.16
2022-09-28T22:16:19.463Z,100147.94
2022-09-28T22:18:47.110Z,100146.38
2022-09-28T22:21:16.936Z,100148.47
2022-09-28T22:23:44.339Z,100145.38
2022-09-28T22:26:20.791Z,100146.97
2022-09-28T22:28:52.885Z,100146.47
2022-09-28T22:31:22.790Z,100153.75
2022-09-28T22:33:49.973Z,100158.94
2022-09-28T22:36:17.165Z,100161.53
2022-09-28T22:38:44.926Z,100166.00
2022-09-28T22:41:12.739Z,100161.09
2022-09-28T22:43:39.525Z,100161.13
2022-09-28T22:46:11.949Z,100161.38
2022-09-28T22:48:39.297Z,100162.47
2022-09-28T22:51:06.952Z,100159.13
2022-09-28T22:53:34.842Z,100169.50
2022-09-28T22:56:06.119Z,100169.75
2022-09-28T22:58:36.791Z,100163.28
2022-09-28T23:01:24.611Z,100159.44
2022-09-28T23:03:52.884Z,100155.53
2022-09-28T23:06:22.014Z,100163.34
2022-09-28T23:08:51.080Z,100156.09
2022-09-28T23:11:18.726Z,100155.88
2022-09-28T23:13:50.785Z,100160.06
2022-09-28T23:16:18.651Z,100159.50
2022-09-28T23:18:46.245Z,100162.41
2022-09-28T23:21:17.906Z,100159.31
2022-09-28T23:23:45.909Z,100162.16
2022-09-28T23:26:18.369Z,100168.66
2022-09-28T23:28:46.059Z,100161.97
2022-09-28T23:31:18.919Z,100170.00
2022-09-28T23:33:46.129Z,100163.03
2022-09-28T23:36:13.129Z,100169.25
2022-09-28T23:38:40.027Z,100170.31
2022-09-28T23:41:07.457Z,100176.00
2022-09-28T23:43:34.818Z,100178.09
2022-09-28T23:46:02.062Z,100178.91
2022-09-28T23:48:29.229Z,100172.41
2022-09-28T23:50:56.078Z,100167.78
2022-09-28T23:53:22.926Z,100168.84
2022-09-28T23:55:49.673Z,100163.16
2022-09-28T23:58:16.764Z,100162.66
